sensor_id;sensor_type;location;lat;lon;timestamp;pressure;altitude;pressure_sealevel;temperature;humidity
13235;BME280;6683;48.506;9.050;2022-11-20T00:02:21;97611.13;;;8.53;72.71
13235;BME280;6683;48.506;9.050;2022-11-20T00:05:24;97609.06;;;8.48;72.79
13235;BME280;6683;48.506;9.050;2022-11-20T00:08:27;97609.97;;;8.41;72.51
13235;BME280;6683;48.506;9.050;2022-11-20T00:11:31;97603.66;;;8.35;72.94
13235;BME280;6683;48.506;9.050;2022-11-20T00:14:34;97613.94;;;8.30;72.74
13235;BME280;6683;48.506;9.050;2022-11-20T00:17:36;97609.03;;;8.27;73.01
13235;BME280;6683;48.506;9.050;2022-11-20T00:20:38;97615.28;;;8.26;73.08
13235;BME280;6683;48.506;9.050;2022-11-20T00:23:42;97610.38;;;8.23;73.17
13235;BME280;6683;48.506;9.050;2022-11-20T00:26:45;97612.38;;;8.21;73.00
13235;BME280;6683;48.506;9.050;2022-11-20T00:29:47;97608.50;;;8.17;72.83
13235;BME280;6683;48.506;9.050;2022-11-20T00:32:50;97616.09;;;8.12;72.99
13235;BME280;6683;48.506;9.050;2022-11-20T00:35:52;97617.47;;;8.08;72.84
13235;BME280;6683;48.506;9.050;2022-11-20T00:38:57;97620.84;;;8.02;73.13
13235;BME280;6683;48.506;9.050;2022-11-20T00:42:00;97627.47;;;7.98;72.87
13235;BME280;6683;48.506;9.050;2022-11-20T00:45:03;97626.00;;;7.95;73.17
13235;BME280;6683;48.506;9.050;2022-11-20T00:48:05;97622.13;;;7.91;73.04
13235;BME280;6683;48.506;9.050;2022-11-20T00:51:08;97626.75;;;7.89;73.43
13235;BME280;6683;48.506;9.050;2022-11-20T00:54:12;97627.28;;;7.85;72.85
13235;BME280;6683;48.506;9.050;2022-11-20T00:57:14;97631.91;;;7.83;72.98
13235;BME280;6683;48.506;9.050;2022-11-20T01:00:17;97632.66;;;7.77;73.12
13235;BME280;6683;48.506;9.050;2022-11-20T01:03:19;97631.59;;;7.71;72.88
13235;BME280;6683;48.506;9.050;2022-11-20T01:06:23;97640.00;;;7.67;72.96
13235;BME280;6683;48.506;9.050;2022-11-20T01:09:28;97645.97;;;7.61;72.97
13235;BME280;6683;48.506;9.050;2022-11-20T01:12:30;97647.50;;;7.55;72.90
13235;BME280;6683;48.506;9.050;2022-11-20T01:15:34;97649.88;;;7.50;72.86
13235;BME280;6683;48.506;9.050;2022-11-20T01:18:39;97647.97;;;7.44;72.68
13235;BME280;6683;48.506;9.050;2022-11-20T01:21:44;97652.94;;;7.39;72.96
13235;BME280;6683;48.506;9.050;2022-11-20T01:24:49;97656.72;;;7.37;72.82
13235;BME280;6683;48.506;9.050;2022-11-20T01:27:51;97654.81;;;7.31;73.10
13235;BME280;6683;48.506;9.050;2022-11-20T01:30:53;97656.16;;;7.26;73.04
13235;BME280;6683;48.506;9.050;2022-11-20T01:33:57;97654.25;;;7.20;72.80
13235;BME280;6683;48.506;9.050;2022-11-20T01:37:00;97666.09;;;7.16;72.63
13235;BME280;6683;48.506;9.050;2022-11-20T01:40:05;97652.69;;;7.11;73.13
13235;BME280;6683;48.506;9.050;2022-11-20T01:43:16;97658.31;;;7.08;73.36
13235;BME280;6683;48.506;9.050;2022-11-20T01:46:26;97650.63;;;7.07;73.29
13235;BME280;6683;48.506;9.050;2022-11-20T01:49:34;97651.78;;;7.04;73.35
13235;BME280;6683;48.506;9.050;2022-11-20T01:52:44;97653.94;;;7.01;72.95
13235;BME280;6683;48.506;9.050;2022-11-20T01:55:51;97647.06;;;7.00;73.31
13235;BME280;6683;48.506;9.050;2022-11-20T01:58:59;97653.47;;;6.97;73.39
13235;BME280;6683;48.506;9.050;2022-11-20T02:02:02;97650.03;;;6.97;73.46
13235;BME280;6683;48.506;9.050;2022-11-20T02:05:14;97657.13;;;6.96;73.38
13235;BME280;6683;48.506;9.050;2022-11-20T02:08:19;97660.91;;;6.94;73.49
13235;BME280;6683;48.506;9.050;2022-11-20T02:11:23;97663.34;;;6.95;73.88
13235;BME280;6683;48.506;9.050;2022-11-20T02:14:26;97659.38;;;6.99;73.85
13235;BME280;6683;48.506;9.050;2022-11-20T02:17:28;97655.38;;;7.03;73.69
13235;BME280;6683;48.506;9.050;2022-11-20T02:20:31;97658.50;;;7.07;73.90
13235;BME280;6683;48.506;9.050;2022-11-20T02:23:39;97649.44;;;7.09;73.97
13235;BME280;6683;48.506;9.050;2022-11-20T02:26:52;97650.56;;;7.15;73.85
13235;BME280;6683;48.506;9.050;2022-11-20T02:29:59;97657.25;;;7.17;73.62
13235;BME280;6683;48.506;9.050;2022-11-20T02:33:03;97650.03;;;7.19;73.49
13235;BME280;6683;48.506;9.050;2022-11-20T02:36:07;97654.25;;;7.20;73.82
13235;BME280;6683;48.506;9.050;2022-11-20T02:39:12;97648.66;;;7.23;73.79
13235;BME280;6683;48.506;9.050;2022-11-20T02:42:18;97647.66;;;7.24;73.80
13235;BME280;6683;48.506;9.050;2022-11-20T02:45:21;97645.84;;;7.25;73.61
13235;BME280;6683;48.506;9.050;2022-11-20T02:48:24;97644.84;;;7.26;73.29
13235;BME280;6683;48.506;9.050;2022-11-20T02:51:26;97640.59;;;7.25;73.47
13235;BME280;6683;48.506;9.050;2022-11-20T02:54:29;97637.16;;;7.24;73.32
13235;BME280;6683;48.506;9.050;2022-11-20T02:57:33;97640.94;;;7.22;73.44
13235;BME280;6683;48.506;9.050;2022-11-20T03:00:35;97638.31;;;7.22;73.47
13235;BME280;6683;48.506;9.050;2022-11-20T03:03:38;97637.53;;;7.21;73.43
13235;BME280;6683;48.506;9.050;2022-11-20T03:06:40;97638.88;;;7.17;73.36
13235;BME280;6683;48.506;9.050;2022-11-20T03:09:43;97648.91;;;7.14;73.24
13235;BME280;6683;48.506;9.050;2022-11-20T03:12:47;97652.88;;;7.10;73.33
13235;BME280;6683;48.506;9.050;2022-11-20T03:15:49;97648.78;;;7.07;73.62
13235;BME280;6683;48.506;9.050;2022-11-20T03:18:52;97646.00;;;7.09;73.98
13235;BME280;6683;48.506;9.050;2022-11-20T03:21:55;97641.50;;;7.17;73.95
13235;BME280;6683;48.506;9.050;2022-11-20T03:24:57;97639.16;;;7.22;74.08
13235;BME280;6683;48.506;9.050;2022-11-20T03:28:01;97629.56;;;7.30;74.02
13235;BME280;6683;48.506;9.050;2022-11-20T03:31:09;97631.81;;;7.33;74.36
13235;BME280;6683;48.506;9.050;2022-11-20T03:34:12;97632.75;;;7.40;74.13
13235;BME280;6683;48.506;9.050;2022-11-20T03:37:15;97633.03;;;7.45;74.27
13235;BME280;6683;48.506;9.050;2022-11-20T03:40:17;97637.38;;;7.52;74.27
13235;BME280;6683;48.506;9.050;2022-11-20T03:43:21;97633.19;;;7.58;74.16
13235;BME280;6683;48.506;9.050;2022-11-20T03:46:24;97633.47;;;7.63;73.81
13235;BME280;6683;48.506;9.050;2022-11-20T03:49:26;97635.56;;;7.67;74.03
13235;BME280;6683;48.506;9.050;2022-11-20T03:52:29;97639.63;;;7.70;73.86
13235;BME280;6683;48.506;9.050;2022-11-20T03:55:31;97650.13;;;7.70;73.83
13235;BME280;6683;48.506;9.050;2022-11-20T03:58:36;97644.88;;;7.70;73.83
13235;BME280;6683;48.506;9.050;2022-11-20T04:01:40;97652.84;;;7.76;74.05
13235;BME280;6683;48.506;9.050;2022-11-20T04:04:42;97650.50;;;7.81;74.11
13235;BME280;6683;48.506;9.050;2022-11-20T04:07:45;97655.84;;;7.88;74.08
13235;BME280;6683;48.506;9.050;2022-11-20T04:10:47;97657.09;;;7.92;74.28
13235;BME280;6683;48.506;9.050;2022-11-20T04:13:54;97652.94;;;7.97;74.30
13235;BME280;6683;48.506;9.050;2022-11-20T04:16:57;97649.41;;;8.05;74.22
13235;BME280;6683;48.506;9.050;2022-11-20T04:19:59;97651.44;;;8.09;74.23
13235;BME280;6683;48.506;9.050;2022-11-20T04:23:02;97650.91;;;8.14;74.31
13235;BME280;6683;48.506;9.050;2022-11-20T04:26:06;97650.34;;;8.19;74.15
13235;BME280;6683;48.506;9.050;2022-11-20T04:29:12;97644.56;;;8.23;74.25
13235;BME280;6683;48.506;9.050;2022-11-20T04:32:14;97640.38;;;8.29;74.42
13235;BME280;6683;48.506;9.050;2022-11-20T04:35:16;97643.47;;;8.32;74.44
13235;BME280;6683;48.506;9.050;2022-11-20T04:38:19;97637.00;;;8.35;74.50
13235;BME280;6683;48.506;9.050;2022-11-20T04:41:22;97630.56;;;8.37;74.35
13235;BME280;6683;48.506;9.050;2022-11-20T04:44:27;97637.91;;;8.42;74.37
13235;BME280;6683;48.506;9.050;2022-11-20T04:47:29;97637.56;;;8.45;74.30
13235;BME280;6683;48.506;9.050;2022-11-20T04:50:31;97633.09;;;8.45;74.20
13235;BME280;6683;48.506;9.050;2022-11-20T04:53:33;97636.34;;;8.47;74.01
13235;BME280;6683;48.506;9.050;2022-11-20T04:56:36;97638.81;;;8.49;74.40
13235;BME280;6683;48.506;9.050;2022-11-20T04:59:40;97629.06;;;8.49;74.12
13235;BME280;6683;48.506;9.050;2022-11-20T05:02:42;97635.16;;;8.50;74.15
13235;BME280;6683;48.506;9.050;2022-11-20T05:05:44;97630.72;;;8.50;74.10
13235;BME280;6683;48.506;9.050;2022-11-20T05:08:47;97629.91;;;8.50;73.93
13235;BME280;6683;48.506;9.050;2022-11-20T05:11:49;97629.53;;;8.53;74.16
13235;BME280;6683;48.506;9.050;2022-11-20T05:14:53;97629.16;;;8.56;74.26
13235;BME280;6683;48.506;9.050;2022-11-20T05:17:55;97627.78;;;8.60;74.31
13235;BME280;6683;48.506;9.050;2022-11-20T05:20:58;97620.69;;;8.60;74.07
13235;BME280;6683;48.506;9.050;2022-11-20T05:24:00;97624.78;;;8.63;74.01
13235;BME280;6683;48.506;9.050;2022-11-20T05:27:02;97615.06;;;8.63;74.09
13235;BME280;6683;48.506;9.050;2022-11-20T05:30:09;97616.88;;;8.63;74.33
13235;BME280;6683;48.506;9.050;2022-11-20T05:33:12;97615.50;;;8.67;74.28
13235;BME280;6683;48.506;9.050;2022-11-20T05:36:15;97621.38;;;8.69;74.06
13235;BME280;6683;48.506;9.050;2022-11-20T05:39:17;97622.84;;;8.71;74.32
13235;BME280;6683;48.506;9.050;2022-11-20T05:42:19;97623.63;;;8.72;74.21
13235;BME280;6683;48.506;9.050;2022-11-20T05:45:35;97620.22;;;8.71;74.27
13235;BME280;6683;48.506;9.050;2022-11-20T05:48:39;97618.19;;;8.73;74.19
13235;BME280;6683;48.506;9.050;2022-11-20T05:51:41;97620.44;;;8.76;74.30
13235;BME280;6683;48.506;9.050;2022-11-20T05:54:44;97608.09;;;8.77;73.99
13235;BME280;6683;48.506;9.050;2022-11-20T05:57:46;97620.06;;;8.79;74.23
13235;BME280;6683;48.506;9.050;2022-11-20T06:00:50;97615.63;;;8.80;74.19
13235;BME280;6683;48.506;9.050;2022-11-20T06:03:53;97615.44;;;8.81;74.24
13235;BME280;6683;48.506;9.050;2022-11-20T06:06:56;97626.59;;;8.83;74.21
13235;BME280;6683;48.506;9.050;2022-11-20T06:09:58;97618.88;;;8.82;73.86
13235;BME280;6683;48.506;9.050;2022-11-20T06:13:00;97621.88;;;8.79;73.79
13235;BME280;6683;48.506;9.050;2022-11-20T06:16:05;97619.81;;;8.74;73.54
13235;BME280;6683;48.506;9.050;2022-11-20T06:19:07;97615.31;;;8.68;73.37
13235;BME280;6683;48.506;9.050;2022-11-20T06:22:10;97617.50;;;8.65;73.45
13235;BME280;6683;48.506;9.050;2022-11-20T06:25:13;97610.38;;;8.59;73.27
13235;BME280;6683;48.506;9.050;2022-11-20T06:28:16;97609.91;;;8.55;73.58
13235;BME280;6683;48.506;9.050;2022-11-20T06:31:22;97608.50;;;8.53;73.51
13235;BME280;6683;48.506;9.050;2022-11-20T06:34:25;97612.13;;;8.52;73.79
13235;BME280;6683;48.506;9.050;2022-11-20T06:37:27;97612.94;;;8.52;73.77
13235;BME280;6683;48.506;9.050;2022-11-20T06:40:30;97622.28;;;8.55;73.83
13235;BME280;6683;48.506;9.050;2022-11-20T06:43:32;97616.81;;;8.56;73.72
13235;BME280;6683;48.506;9.050;2022-11-20T06:46:36;97622.91;;;8.57;73.72
13235;BME280;6683;48.506;9.050;2022-11-20T06:49:38;97620.28;;;8.57;73.80
13235;BME280;6683;48.506;9.050;2022-11-20T06:52:41;97625.34;;;8.58;73.60
13235;BME280;6683;48.506;9.050;2022-11-20T06:55:43;97634.03;;;8.59;73.60
13235;BME280;6683;48.506;9.050;2022-11-20T06:58:46;97634.03;;;8.59;73.63
13235;BME280;6683;48.506;9.050;2022-11-20T07:01:49;97635.03;;;8.58;73.38
13235;BME280;6683;48.506;9.050;2022-11-20T07:04:52;97638.47;;;8.58;73.59
13235;BME280;6683;48.506;9.050;2022-11-20T07:07:55;97635.22;;;8.56;73.60
13235;BME280;6683;48.506;9.050;2022-11-20T07:10:59;97637.84;;;8.56;73.49
13235;BME280;6683;48.506;9.050;2022-11-20T07:14:02;97631.97;;;8.54;73.55
13235;BME280;6683;48.506;9.050;2022-11-20T07:17:05;97640.84;;;8.53;73.43
13235;BME280;6683;48.506;9.050;2022-11-20T07:20:09;97649.56;;;8.54;73.59
13235;BME280;6683;48.506;9.050;2022-11-20T07:23:11;97651.00;;;8.56;73.63
13235;BME280;6683;48.506;9.050;2022-11-20T07:26:14;97642.09;;;8.57;73.70
13235;BME280;6683;48.506;9.050;2022-11-20T07:29:16;97651.44;;;8.60;73.63
13235;BME280;6683;48.506;9.050;2022-11-20T07:32:22;97653.09;;;8.61;73.88
13235;BME280;6683;48.506;9.050;2022-11-20T07:35:25;97648.69;;;8.68;73.84
13235;BME280;6683;48.506;9.050;2022-11-20T07:38:27;97641.25;;;8.71;73.75
13235;BME280;6683;48.506;9.050;2022-11-20T07:41:30;97652.41;;;8.73;73.78
13235;BME280;6683;48.506;9.050;2022-11-20T07:44:32;97650.81;;;8.79;73.98
13235;BME280;6683;48.506;9.050;2022-11-20T07:47:36;97649.63;;;8.81;73.80
13235;BME280;6683;48.506;9.050;2022-11-20T07:50:39;97650.25;;;8.83;73.70
13235;BME280;6683;48.506;9.050;2022-11-20T07:53:41;97652.34;;;8.88;73.67
13235;BME280;6683;48.506;9.050;2022-11-20T07:56:44;97658.84;;;8.92;73.78
13235;BME280;6683;48.506;9.050;2022-11-20T07:59:46;97651.19;;;8.97;73.93
13235;BME280;6683;48.506;9.050;2022-11-20T08:02:50;97653.44;;;9.00;73.98
13235;BME280;6683;48.506;9.050;2022-11-20T08:05:52;97655.94;;;9.08;73.87
13235;BME280;6683;48.506;9.050;2022-11-20T08:08:55;97657.00;;;9.14;74.10
13235;BME280;6683;48.506;9.050;2022-11-20T08:11:57;97655.03;;;9.22;74.32
13235;BME280;6683;48.506;9.050;2022-11-20T08:15:16;97658.53;;;9.29;74.24
13235;BME280;6683;48.506;9.050;2022-11-20T08:18:20;97654.94;;;9.37;74.31
13235;BME280;6683;48.506;9.050;2022-11-20T08:21:22;97663.72;;;9.44;74.08
13235;BME280;6683;48.506;9.050;2022-11-20T08:24:25;97661.97;;;9.51;74.33
13235;BME280;6683;48.506;9.050;2022-11-20T08:27:27;97677.97;;;9.56;74.31
13235;BME280;6683;48.506;9.050;2022-11-20T08:30:30;97676.22;;;9.63;73.78
13235;BME280;6683;48.506;9.050;2022-11-20T08:33:35;97679.69;;;9.70;74.12
13235;BME280;6683;48.506;9.050;2022-11-20T08:36:38;97683.38;;;9.76;73.75
13235;BME280;6683;48.506;9.050;2022-11-20T08:39:40;97680.81;;;9.82;73.95
13235;BME280;6683;48.506;9.050;2022-11-20T08:42:47;97687.94;;;9.88;73.97
13235;BME280;6683;48.506;9.050;2022-11-20T08:45:50;97693.25;;;9.95;73.76
13235;BME280;6683;48.506;9.050;2022-11-20T08:48:53;97697.91;;;9.99;74.01
13235;BME280;6683;48.506;9.050;2022-11-20T08:51:56;97696.13;;;10.06;73.67
13235;BME280;6683;48.506;9.050;2022-11-20T08:54:59;97694.75;;;10.10;73.50
13235;BME280;6683;48.506;9.050;2022-11-20T08:58:03;97698.84;;;10.13;73.89
13235;BME280;6683;48.506;9.050;2022-11-20T09:01:06;97694.19;;;10.15;73.34
13235;BME280;6683;48.506;9.050;2022-11-20T09:04:10;97694.78;;;10.17;73.31
13235;BME280;6683;48.506;9.050;2022-11-20T09:07:15;97698.66;;;10.21;73.12
13235;BME280;6683;48.506;9.050;2022-11-20T09:10:17;97704.34;;;10.24;73.39
13235;BME280;6683;48.506;9.050;2022-11-20T09:13:20;97706.63;;;10.27;73.19
13235;BME280;6683;48.506;9.050;2022-11-20T09:16:22;97700.13;;;10.30;73.04
13235;BME280;6683;48.506;9.050;2022-11-20T09:19:26;97698.13;;;10.32;73.18
13235;BME280;6683;48.506;9.050;2022-11-20T09:22:29;97704.81;;;10.34;73.08
13235;BME280;6683;48.506;9.050;2022-11-20T09:25:31;97703.41;;;10.38;73.35
13235;BME280;6683;48.506;9.050;2022-11-20T09:28:34;97707.47;;;10.41;73.48
13235;BME280;6683;48.506;9.050;2022-11-20T09:31:36;97704.66;;;10.42;73.33
13235;BME280;6683;48.506;9.050;2022-11-20T09:34:40;97714.00;;;10.45;72.88
13235;BME280;6683;48.506;9.050;2022-11-20T09:37:42;97710.34;;;10.46;73.16
13235;BME280;6683;48.506;9.050;2022-11-20T09:40:51;97713.78;;;10.47;73.01
13235;BME280;6683;48.506;9.050;2022-11-20T09:44:02;97724.34;;;10.47;72.99
13235;BME280;6683;48.506;9.050;2022-11-20T09:47:16;97727.81;;;10.47;72.85
13235;BME280;6683;48.506;9.050;2022-11-20T09:50:32;97723.72;;;10.44;72.90
13235;BME280;6683;48.506;9.050;2022-11-20T09:53:52;97729.00;;;10.44;73.18
13235;BME280;6683;48.506;9.050;2022-11-20T09:57:01;97726.16;;;10.46;72.73
13235;BME280;6683;48.506;9.050;2022-11-20T10:00:09;97732.47;;;10.45;72.89
13235;BME280;6683;48.506;9.050;2022-11-20T10:03:18;97722.91;;;10.44;72.86
13235;BME280;6683;48.506;9.050;2022-11-20T10:06:30;97726.38;;;10.44;72.72
13235;BME280;6683;48.506;9.050;2022-11-20T10:09:37;97724.56;;;10.45;72.47
13235;BME280;6683;48.506;9.050;2022-11-20T10:12:58;97724.56;;;10.45;73.27
13235;BME280;6683;48.506;9.050;2022-11-20T10:16:18;97721.50;;;10.48;73.29
13235;BME280;6683;48.506;9.050;2022-11-20T10:19:43;97728.22;;;10.51;73.17
13235;BME280;6683;48.506;9.050;2022-11-20T10:23:21;97734.72;;;10.55;73.35
13235;BME280;6683;48.506;9.050;2022-11-20T10:26:31;97727.22;;;10.58;72.80
13235;BME280;6683;48.506;9.050;2022-11-20T10:29:42;97724.19;;;10.61;73.07
13235;BME280;6683;48.506;9.050;2022-11-20T10:32:51;97729.88;;;10.65;73.14
13235;BME280;6683;48.506;9.050;2022-11-20T10:36:05;97730.50;;;10.67;73.04
13235;BME280;6683;48.506;9.050;2022-11-20T10:39:20;97730.13;;;10.70;72.80
13235;BME280;6683;48.506;9.050;2022-11-20T10:42:31;97726.25;;;10.72;73.12
13235;BME280;6683;48.506;9.050;2022-11-20T10:45:45;97723.44;;;10.74;72.77
13235;BME280;6683;48.506;9.050;2022-11-20T10:48:49;97717.75;;;10.77;72.59
13235;BME280;6683;48.506;9.050;2022-11-20T10:52:04;97718.97;;;10.81;73.18
13235;BME280;6683;48.506;9.050;2022-11-20T10:55:25;97710.66;;;10.84;73.16
13235;BME280;6683;48.506;9.050;2022-11-20T10:58:38;97707.59;;;10.87;73.00
13235;BME280;6683;48.506;9.050;2022-11-20T11:01:43;97714.31;;;10.89;72.76
13235;BME280;6683;48.506;9.050;2022-11-20T11:04:47;97703.16;;;10.87;72.60
13235;BME280;6683;48.506;9.050;2022-11-20T11:07:53;97703.75;;;10.89;72.67
13235;BME280;6683;48.506;9.050;2022-11-20T11:11:13;97699.69;;;10.93;73.46
13235;BME280;6683;48.506;9.050;2022-11-20T11:14:20;97694.88;;;11.23;73.89
13235;BME280;6683;48.506;9.050;2022-11-20T11:17:30;97693.63;;;11.58;73.38
13235;BME280;6683;48.506;9.050;2022-11-20T11:20:33;97681.22;;;11.91;72.76
13235;BME280;6683;48.506;9.050;2022-11-20T11:23:38;97678.94;;;12.08;72.17
13235;BME280;6683;48.506;9.050;2022-11-20T11:26:52;97670.56;;;12.18;72.43
13235;BME280;6683;48.506;9.050;2022-11-20T11:30:15;97663.00;;;12.21;72.20
13235;BME280;6683;48.506;9.050;2022-11-20T11:33:21;97662.38;;;12.26;71.66
13235;BME280;6683;48.506;9.050;2022-11-20T11:36:24;97655.66;;;12.30;71.47
13235;BME280;6683;48.506;9.050;2022-11-20T11:39:28;97649.78;;;12.97;71.68
13235;BME280;6683;48.506;9.050;2022-11-20T11:42:33;97654.84;;;13.54;69.92
13235;BME280;6683;48.506;9.050;2022-11-20T11:45:36;97655.22;;;13.57;69.26
13235;BME280;6683;48.506;9.050;2022-11-20T11:48:39;97640.91;;;13.40;68.90
13235;BME280;6683;48.506;9.050;2022-11-20T11:51:56;97644.16;;;13.18;69.31
13235;BME280;6683;48.506;9.050;2022-11-20T11:55:03;97641.59;;;12.98;69.26
13235;BME280;6683;48.506;9.050;2022-11-20T11:58:19;97636.25;;;12.80;69.52
13235;BME280;6683;48.506;9.050;2022-11-20T12:01:29;97622.66;;;12.70;69.58
13235;BME280;6683;48.506;9.050;2022-11-20T12:04:43;97628.81;;;12.64;69.90
13235;BME280;6683;48.506;9.050;2022-11-20T12:07:48;97628.84;;;12.57;69.52
13235;BME280;6683;48.506;9.050;2022-11-20T12:10:59;97628.50;;;12.47;69.77
13235;BME280;6683;48.506;9.050;2022-11-20T12:14:13;97622.84;;;12.37;69.89
13235;BME280;6683;48.506;9.050;2022-11-20T12:17:17;97637.13;;;12.30;69.86
13235;BME280;6683;48.506;9.050;2022-11-20T12:20:22;97626.19;;;12.20;69.73
13235;BME280;6683;48.506;9.050;2022-11-20T12:23:33;97628.03;;;12.13;69.93
13235;BME280;6683;48.506;9.050;2022-11-20T12:26:55;97625.00;;;12.09;70.42
13235;BME280;6683;48.506;9.050;2022-11-20T12:30:09;97627.81;;;12.21;70.97
13235;BME280;6683;48.506;9.050;2022-11-20T12:33:30;97616.56;;;12.32;70.42
13235;BME280;6683;48.506;9.050;2022-11-20T12:36:44;97611.06;;;12.33;69.58
13235;BME280;6683;48.506;9.050;2022-11-20T12:39:51;97605.16;;;12.31;69.47
13235;BME280;6683;48.506;9.050;2022-11-20T12:43:06;97612.09;;;12.32;69.64
13235;BME280;6683;48.506;9.050;2022-11-20T12:46:37;97615.13;;;12.36;69.78
13235;BME280;6683;48.506;9.050;2022-11-20T12:49:50;97613.69;;;12.33;69.56
13235;BME280;6683;48.506;9.050;2022-11-20T12:52:57;97618.59;;;12.30;69.37
13235;BME280;6683;48.506;9.050;2022-11-20T12:56:20;97614.56;;;12.21;69.40
13235;BME280;6683;48.506;9.050;2022-11-20T12:59:45;97614.81;;;12.13;69.71
13235;BME280;6683;48.506;9.050;2022-11-20T13:06:50;97613.47;;;11.97;69.19
13235;BME280;6683;48.506;9.050;2022-11-20T13:09:53;97613.28;;;11.92;69.56
13235;BME280;6683;48.506;9.050;2022-11-20T13:13:01;97616.34;;;11.89;69.22
13235;BME280;6683;48.506;9.050;2022-11-20T13:16:08;97617.34;;;11.88;69.21
13235;BME280;6683;48.506;9.050;2022-11-20T13:19:17;97615.31;;;11.83;69.42
13235;BME280;6683;48.506;9.050;2022-11-20T13:22:25;97609.44;;;11.81;69.52
13235;BME280;6683;48.506;9.050;2022-11-20T13:25:30;97613.31;;;11.79;69.30
13235;BME280;6683;48.506;9.050;2022-11-20T13:28:32;97609.28;;;11.76;69.28
13235;BME280;6683;48.506;9.050;2022-11-20T13:31:36;97605.59;;;11.71;69.24
13235;BME280;6683;48.506;9.050;2022-11-20T13:34:53;97604.41;;;11.67;69.39
13235;BME280;6683;48.506;9.050;2022-11-20T13:38:06;97588.94;;;11.64;69.43
13235;BME280;6683;48.506;9.050;2022-11-20T13:41:09;97587.72;;;11.66;69.30
13235;BME280;6683;48.506;9.050;2022-11-20T13:44:32;97583.25;;;11.67;69.16
13235;BME280;6683;48.506;9.050;2022-11-20T13:47:36;97572.84;;;11.65;68.73
13235;BME280;6683;48.506;9.050;2022-11-20T13:50:53;97567.97;;;11.62;69.17
13235;BME280;6683;48.506;9.050;2022-11-20T13:58:01;97563.75;;;11.55;69.30
13235;BME280;6683;48.506;9.050;2022-11-20T14:01:10;97555.81;;;11.55;69.28
13235;BME280;6683;48.506;9.050;2022-11-20T14:04:27;97553.78;;;11.50;69.13
13235;BME280;6683;48.506;9.050;2022-11-20T14:07:37;97548.94;;;11.47;68.88
13235;BME280;6683;48.506;9.050;2022-11-20T14:10:41;97548.13;;;11.47;69.19
13235;BME280;6683;48.506;9.050;2022-11-20T14:14:01;97553.78;;;11.44;69.37
13235;BME280;6683;48.506;9.050;2022-11-20T14:17:07;97556.06;;;11.40;68.85
13235;BME280;6683;48.506;9.050;2022-11-20T14:20:14;97553.81;;;11.37;69.06
13235;BME280;6683;48.506;9.050;2022-11-20T14:23:26;97555.66;;;11.37;69.42
13235;BME280;6683;48.506;9.050;2022-11-20T14:26:28;97555.66;;;11.37;69.24
13235;BME280;6683;48.506;9.050;2022-11-20T14:29:36;97547.75;;;11.37;69.34
13235;BME280;6683;48.506;9.050;2022-11-20T14:32:40;97553.03;;;11.37;69.12
13235;BME280;6683;48.506;9.050;2022-11-20T14:35:46;97547.13;;;11.35;68.90
13235;BME280;6683;48.506;9.050;2022-11-20T14:38:51;97546.72;;;11.31;68.91
13235;BME280;6683;48.506;9.050;2022-11-20T14:41:54;97542.66;;;11.28;68.53
13235;BME280;6683;48.506;9.050;2022-11-20T14:44:58;97535.38;;;11.24;68.81
13235;BME280;6683;48.506;9.050;2022-11-20T14:48:02;97531.91;;;11.23;68.84
13235;BME280;6683;48.506;9.050;2022-11-20T14:51:04;97525.19;;;11.21;68.86
13235;BME280;6683;48.506;9.050;2022-11-20T14:54:13;97523.78;;;11.18;69.25
13235;BME280;6683;48.506;9.050;2022-11-20T14:57:27;97520.75;;;11.15;69.26
13235;BME280;6683;48.506;9.050;2022-11-20T15:00:34;97516.47;;;11.14;69.10
13235;BME280;6683;48.506;9.050;2022-11-20T15:03:39;97526.25;;;11.13;68.97
13235;BME280;6683;48.506;9.050;2022-11-20T15:06:50;97525.63;;;11.11;69.33
13235;BME280;6683;48.506;9.050;2022-11-20T15:10:07;97513.88;;;11.07;69.20
13235;BME280;6683;48.506;9.050;2022-11-20T15:13:13;97506.56;;;11.03;69.19
13235;BME280;6683;48.506;9.050;2022-11-20T15:16:19;97508.38;;;10.96;69.07
13235;BME280;6683;48.506;9.050;2022-11-20T15:19:24;97493.97;;;10.92;69.03
13235;BME280;6683;48.506;9.050;2022-11-20T15:22:27;97492.97;;;10.86;69.08
13235;BME280;6683;48.506;9.050;2022-11-20T15:25:31;97490.13;;;10.81;68.88
13235;BME280;6683;48.506;9.050;2022-11-20T15:28:36;97475.94;;;10.76;68.97
13235;BME280;6683;48.506;9.050;2022-11-20T15:31:40;97482.63;;;10.72;68.97
13235;BME280;6683;48.506;9.050;2022-11-20T15:34:45;97483.44;;;10.66;68.91
13235;BME280;6683;48.506;9.050;2022-11-20T15:37:48;97484.88;;;10.62;69.11
13235;BME280;6683;48.506;9.050;2022-11-20T15:40:51;97484.06;;;10.55;69.35
13235;BME280;6683;48.506;9.050;2022-11-20T15:43:54;97484.66;;;10.50;69.19
13235;BME280;6683;48.506;9.050;2022-11-20T15:46:57;97478.38;;;10.44;69.02
13235;BME280;6683;48.506;9.050;2022-11-20T15:49:59;97467.81;;;10.38;69.19
13235;BME280;6683;48.506;9.050;2022-11-20T15:53:02;97467.81;;;10.31;69.18
13235;BME280;6683;48.506;9.050;2022-11-20T15:56:07;97466.00;;;10.25;68.80
13235;BME280;6683;48.506;9.050;2022-11-20T15:59:13;97469.66;;;10.18;69.28
13235;BME280;6683;48.506;9.050;2022-11-20T16:02:16;97465.34;;;10.10;68.92
13235;BME280;6683;48.506;9.050;2022-11-20T16:05:18;97461.25;;;10.01;68.94
13235;BME280;6683;48.506;9.050;2022-11-20T16:08:24;97457.81;;;9.94;69.09
13235;BME280;6683;48.506;9.050;2022-11-20T16:11:27;97471.34;;;9.85;69.03
13235;BME280;6683;48.506;9.050;2022-11-20T16:14:30;97468.91;;;9.77;69.14
13235;BME280;6683;48.506;9.050;2022-11-20T16:17:50;97476.00;;;9.70;68.99
13235;BME280;6683;48.506;9.050;2022-11-20T16:20:54;97475.16;;;9.62;69.20
13235;BME280;6683;48.506;9.050;2022-11-20T16:23:58;97476.75;;;9.57;68.96
13235;BME280;6683;48.506;9.050;2022-11-20T16:27:02;97473.69;;;9.53;69.37
13235;BME280;6683;48.506;9.050;2022-11-20T16:30:05;97465.38;;;9.50;69.59
13235;BME280;6683;48.506;9.050;2022-11-20T16:33:10;97468.22;;;9.48;69.51
13235;BME280;6683;48.506;9.050;2022-11-20T16:36:15;97463.34;;;9.45;69.69
13235;BME280;6683;48.506;9.050;2022-11-20T16:39:17;97456.47;;;9.44;69.51
13235;BME280;6683;48.506;9.050;2022-11-20T16:42:21;97454.19;;;9.41;69.66
13235;BME280;6683;48.506;9.050;2022-11-20T16:45:23;97452.75;;;9.39;69.62
13235;BME280;6683;48.506;9.050;2022-11-20T16:48:26;97458.25;;;9.37;69.51
13235;BME280;6683;48.506;9.050;2022-11-20T16:51:31;97453.19;;;9.36;69.67
13235;BME280;6683;48.506;9.050;2022-11-20T16:54:35;97443.47;;;9.36;69.77